sensor_id;sensor_type;location;lat;lon;timestamp;temperature;humidity
20973;DHT22;10645;52.370;13.314;2023-08-30T00:00:56;13.90;99.90
20973;DHT22;10645;52.370;13.314;2023-08-30T00:03:22;13.90;99.90
20973;DHT22;10645;52.370;13.314;2023-08-30T00:05:48;13.90;99.90
20973;DHT22;10645;52.370;13.314;2023-08-30T00:08:14;13.90;99.90
20973;DHT22;10645;52.370;13.314;2023-08-30T00:10:45;13.90;99.90
20973;DHT22;10645;52.370;13.314;2023-08-30T00:13:11;13.90;99.90
20973;DHT22;10645;52.370;13.314;2023-08-30T00:15:37;13.90;99.90
20973;DHT22;10645;52.370;13.314;2023-08-30T00:18:03;14.00;99.90
20973;DHT22;10645;52.370;13.314;2023-08-30T00:20:29;14.00;99.90
20973;DHT22;10645;52.370;13.314;2023-08-30T00:22:57;13.90;99.90
20973;DHT22;10645;52.370;13.314;2023-08-30T00:25:23;13.90;99.90
20973;DHT22;10645;52.370;13.314;2023-08-30T00:27:49;13.90;99.90
20973;DHT22;10645;52.370;13.314;2023-08-30T00:30:15;13.90;99.90
20973;DHT22;10645;52.370;13.314;2023-08-30T00:32:41;13.90;99.90
20973;DHT22;10645;52.370;13.314;2023-08-30T00:35:07;13.90;99.90
20973;DHT22;10645;52.370;13.314;2023-08-30T00:37:33;13.80;99.90
20973;DHT22;10645;52.370;13.314;2023-08-30T00:40:00;13.80;99.90
20973;DHT22;10645;52.370;13.314;2023-08-30T00:42:27;13.80;99.90
20973;DHT22;10645;52.370;13.314;2023-08-30T00:44:53;13.80;99.90
20973;DHT22;10645;52.370;13.314;2023-08-30T00:47:20;13.80;99.90
20973;DHT22;10645;52.370;13.314;2023-08-30T00:49:47;13.70;99.90
20973;DHT22;10645;52.370;13.314;2023-08-30T00:52:13;13.70;99.90
20973;DHT22;10645;52.370;13.314;2023-08-30T00:54:39;13.70;99.90
20973;DHT22;10645;52.370;13.314;2023-08-30T00:57:06;13.70;99.90
20973;DHT22;10645;52.370;13.314;2023-08-30T00:59:33;13.60;99.90
20973;DHT22;10645;52.370;13.314;2023-08-30T01:02:00;13.60;99.90
20973;DHT22;10645;52.370;13.314;2023-08-30T01:04:27;13.60;99.90
20973;DHT22;10645;52.370;13.314;2023-08-30T01:06:53;13.50;99.90
20973;DHT22;10645;52.370;13.314;2023-08-30T01:09:20;13.60;99.90
20973;DHT22;10645;52.370;13.314;2023-08-30T01:12:02;13.50;99.90
20973;DHT22;10645;52.370;13.314;2023-08-30T01:17:21;13.50;99.90
20973;DHT22;10645;52.370;13.314;2023-08-30T01:20:00;13.50;99.90
20973;DHT22;10645;52.370;13.314;2023-08-30T01:22:57;13.40;99.90
20973;DHT22;10645;52.370;13.314;2023-08-30T01:25:42;13.50;99.90
20973;DHT22;10645;52.370;13.314;2023-08-30T01:28:09;13.50;99.90
20973;DHT22;10645;52.370;13.314;2023-08-30T01:30:39;13.40;99.90
20973;DHT22;10645;52.370;13.314;2023-08-30T01:33:06;13.50;99.90
20973;DHT22;10645;52.370;13.314;2023-08-30T01:35:33;13.50;99.90
20973;DHT22;10645;52.370;13.314;2023-08-30T01:38:05;13.40;99.90
20973;DHT22;10645;52.370;13.314;2023-08-30T01:40:36;13.40;99.90
20973;DHT22;10645;52.370;13.314;2023-08-30T01:43:04;13.40;99.90
20973;DHT22;10645;52.370;13.314;2023-08-30T01:45:33;13.40;99.90
20973;DHT22;10645;52.370;13.314;2023-08-30T01:48:00;13.40;99.90
20973;DHT22;10645;52.370;13.314;2023-08-30T01:50:27;13.40;99.90
20973;DHT22;10645;52.370;13.314;2023-08-30T01:52:54;13.40;99.90
20973;DHT22;10645;52.370;13.314;2023-08-30T01:55:22;13.30;99.90
20973;DHT22;10645;52.370;13.314;2023-08-30T01:57:48;13.40;99.90
20973;DHT22;10645;52.370;13.314;2023-08-30T02:00:15;13.30;99.90
20973;DHT22;10645;52.370;13.314;2023-08-30T02:02:41;13.30;99.90
20973;DHT22;10645;52.370;13.314;2023-08-30T02:05:08;13.30;99.90
20973;DHT22;10645;52.370;13.314;2023-08-30T02:08:02;13.20;99.90
20973;DHT22;10645;52.370;13.314;2023-08-30T02:10:43;13.30;99.90
20973;DHT22;10645;52.370;13.314;2023-08-30T02:13:11;13.30;99.90
20973;DHT22;10645;52.370;13.314;2023-08-30T02:15:39;13.30;99.90
20973;DHT22;10645;52.370;13.314;2023-08-30T02:18:08;13.20;99.90
20973;DHT22;10645;52.370;13.314;2023-08-30T02:20:34;13.20;99.90
20973;DHT22;10645;52.370;13.314;2023-08-30T02:23:00;13.10;99.90
20973;DHT22;10645;52.370;13.314;2023-08-30T02:25:27;13.10;99.90
20973;DHT22;10645;52.370;13.314;2023-08-30T02:27:54;13.10;99.90
20973;DHT22;10645;52.370;13.314;2023-08-30T02:30:20;13.10;99.90
20973;DHT22;10645;52.370;13.314;2023-08-30T02:32:46;13.10;99.90
20973;DHT22;10645;52.370;13.314;2023-08-30T02:35:12;13.10;99.90
20973;DHT22;10645;52.370;13.314;2023-08-30T02:37:38;13.10;99.90
20973;DHT22;10645;52.370;13.314;2023-08-30T02:40:06;13.00;99.90
20973;DHT22;10645;52.370;13.314;2023-08-30T02:42:32;13.00;99.90
20973;DHT22;10645;52.370;13.314;2023-08-30T02:44:59;12.90;99.90
20973;DHT22;10645;52.370;13.314;2023-08-30T02:47:25;12.90;99.90
20973;DHT22;10645;52.370;13.314;2023-08-30T02:49:51;12.90;99.90
20973;DHT22;10645;52.370;13.314;2023-08-30T02:52:17;12.80;99.90
20973;DHT22;10645;52.370;13.314;2023-08-30T02:54:43;12.80;99.90
20973;DHT22;10645;52.370;13.314;2023-08-30T02:57:09;12.80;99.90
20973;DHT22;10645;52.370;13.314;2023-08-30T02:59:35;12.80;99.90
20973;DHT22;10645;52.370;13.314;2023-08-30T03:02:05;12.70;99.90
20973;DHT22;10645;52.370;13.314;2023-08-30T03:04:31;12.70;99.90
20973;DHT22;10645;52.370;13.314;2023-08-30T03:06:58;12.70;99.90
20973;DHT22;10645;52.370;13.314;2023-08-30T03:09:26;12.60;99.90
20973;DHT22;10645;52.370;13.314;2023-08-30T03:11:52;12.60;99.90
20973;DHT22;10645;52.370;13.314;2023-08-30T03:14:18;12.60;99.90
20973;DHT22;10645;52.370;13.314;2023-08-30T03:16:44;12.60;99.90
20973;DHT22;10645;52.370;13.314;2023-08-30T03:19:13;12.60;99.90
20973;DHT22;10645;52.370;13.314;2023-08-30T03:21:40;12.70;99.90
20973;DHT22;10645;52.370;13.314;2023-08-30T03:24:07;12.70;99.90
20973;DHT22;10645;52.370;13.314;2023-08-30T03:26:35;12.60;99.90
20973;DHT22;10645;52.370;13.314;2023-08-30T03:29:01;12.60;99.90
20973;DHT22;10645;52.370;13.314;2023-08-30T03:31:27;12.70;99.90
20973;DHT22;10645;52.370;13.314;2023-08-30T03:33:53;12.60;99.90
20973;DHT22;10645;52.370;13.314;2023-08-30T03:36:19;12.60;99.90
20973;DHT22;10645;52.370;13.314;2023-08-30T03:38:46;12.60;99.90
20973;DHT22;10645;52.370;13.314;2023-08-30T03:41:12;12.60;99.90
20973;DHT22;10645;52.370;13.314;2023-08-30T03:43:39;12.60;99.90
20973;DHT22;10645;52.370;13.314;2023-08-30T03:46:06;12.70;99.90
20973;DHT22;10645;52.370;13.314;2023-08-30T03:48:32;12.70;99.90
20973;DHT22;10645;52.370;13.314;2023-08-30T03:50:58;12.70;99.90
20973;DHT22;10645;52.370;13.314;2023-08-30T03:53:25;12.80;99.90
20973;DHT22;10645;52.370;13.314;2023-08-30T03:55:51;12.80;99.90
20973;DHT22;10645;52.370;13.314;2023-08-30T03:58:20;12.80;99.90
20973;DHT22;10645;52.370;13.314;2023-08-30T04:00:46;12.80;99.90
20973;DHT22;10645;52.370;13.314;2023-08-30T04:03:14;12.80;99.90
20973;DHT22;10645;52.370;13.314;2023-08-30T04:05:41;12.80;99.90
20973;DHT22;10645;52.370;13.314;2023-08-30T04:08:07;12.80;99.90
20973;DHT22;10645;52.370;13.314;2023-08-30T04:10:35;12.70;99.90
20973;DHT22;10645;52.370;13.314;2023-08-30T04:13:03;12.80;99.90
20973;DHT22;10645;52.370;13.314;2023-08-30T04:15:32;12.80;99.90
20973;DHT22;10645;52.370;13.314;2023-08-30T04:17:58;12.70;99.90
20973;DHT22;10645;52.370;13.314;2023-08-30T04:20:24;12.70;99.90
20973;DHT22;10645;52.370;13.314;2023-08-30T04:22:50;12.70;99.90
20973;DHT22;10645;52.370;13.314;2023-08-30T04:25:16;12.70;99.90
20973;DHT22;10645;52.370;13.314;2023-08-30T04:27:43;12.70;99.90
20973;DHT22;10645;52.370;13.314;2023-08-30T04:30:10;12.70;99.90
20973;DHT22;10645;52.370;13.314;2023-08-30T04:32:36;12.70;99.90
20973;DHT22;10645;52.370;13.314;2023-08-30T04:35:02;12.70;99.90
20973;DHT22;10645;52.370;13.314;2023-08-30T04:37:32;12.80;99.90
20973;DHT22;10645;52.370;13.314;2023-08-30T04:39:58;12.80;99.90
20973;DHT22;10645;52.370;13.314;2023-08-30T04:42:25;12.90;99.90
20973;DHT22;10645;52.370;13.314;2023-08-30T04:44:52;12.90;99.90
20973;DHT22;10645;52.370;13.314;2023-08-30T04:47:20;13.00;99.90
20973;DHT22;10645;52.370;13.314;2023-08-30T04:49:52;13.00;99.90
20973;DHT22;10645;52.370;13.314;2023-08-30T04:52:19;13.10;99.90
20973;DHT22;10645;52.370;13.314;2023-08-30T04:54:45;13.10;99.90
20973;DHT22;10645;52.370;13.314;2023-08-30T04:57:12;13.20;99.90
20973;DHT22;10645;52.370;13.314;2023-08-30T04:59:40;13.30;99.90
20973;DHT22;10645;52.370;13.314;2023-08-30T05:02:07;13.40;99.90
20973;DHT22;10645;52.370;13.314;2023-08-30T05:04:38;13.50;99.90
20973;DHT22;10645;52.370;13.314;2023-08-30T05:07:05;13.70;99.90
20973;DHT22;10645;52.370;13.314;2023-08-30T05:09:31;13.70;99.90
20973;DHT22;10645;52.370;13.314;2023-08-30T05:11:58;13.80;99.90
20973;DHT22;10645;52.370;13.314;2023-08-30T05:14:25;13.90;99.90
20973;DHT22;10645;52.370;13.314;2023-08-30T05:16:51;14.00;99.90
20973;DHT22;10645;52.370;13.314;2023-08-30T05:19:17;14.10;99.90
20973;DHT22;10645;52.370;13.314;2023-08-30T05:21:43;14.20;99.90
20973;DHT22;10645;52.370;13.314;2023-08-30T05:24:09;14.30;99.90
20973;DHT22;10645;52.370;13.314;2023-08-30T05:26:36;14.30;99.90
20973;DHT22;10645;52.370;13.314;2023-08-30T05:29:03;14.40;99.90
20973;DHT22;10645;52.370;13.314;2023-08-30T05:31:29;14.40;99.90
20973;DHT22;10645;52.370;13.314;2023-08-30T05:34:01;14.50;99.90
20973;DHT22;10645;52.370;13.314;2023-08-30T05:37:00;14.50;99.90
20973;DHT22;10645;52.370;13.314;2023-08-30T05:39:51;14.50;99.90
20973;DHT22;10645;52.370;13.314;2023-08-30T05:42:17;14.60;99.90
20973;DHT22;10645;52.370;13.314;2023-08-30T05:44:44;14.60;99.90
20973;DHT22;10645;52.370;13.314;2023-08-30T05:47:10;14.70;99.90
20973;DHT22;10645;52.370;13.314;2023-08-30T05:49:40;14.80;99.90
20973;DHT22;10645;52.370;13.314;2023-08-30T05:52:07;14.90;99.90
20973;DHT22;10645;52.370;13.314;2023-08-30T05:54:33;14.90;99.90
20973;DHT22;10645;52.370;13.314;2023-08-30T05:56:59;15.00;99.90
20973;DHT22;10645;52.370;13.314;2023-08-30T05:59:26;15.10;99.90
20973;DHT22;10645;52.370;13.314;2023-08-30T06:01:53;15.10;99.90
20973;DHT22;10645;52.370;13.314;2023-08-30T06:04:19;15.20;99.90
20973;DHT22;10645;52.370;13.314;2023-08-30T06:06:46;15.30;99.90
20973;DHT22;10645;52.370;13.314;2023-08-30T06:09:12;15.30;99.90
20973;DHT22;10645;52.370;13.314;2023-08-30T06:11:38;15.40;99.90
20973;DHT22;10645;52.370;13.314;2023-08-30T06:14:04;15.30;99.90
20973;DHT22;10645;52.370;13.314;2023-08-30T06:16:30;15.40;99.90
20973;DHT22;10645;52.370;13.314;2023-08-30T06:18:57;15.50;99.90
20973;DHT22;10645;52.370;13.314;2023-08-30T06:21:25;15.60;99.90
20973;DHT22;10645;52.370;13.314;2023-08-30T06:23:52;15.70;99.90
20973;DHT22;10645;52.370;13.314;2023-08-30T06:26:18;15.70;99.90
20973;DHT22;10645;52.370;13.314;2023-08-30T06:28:44;15.70;99.90
20973;DHT22;10645;52.370;13.314;2023-08-30T06:31:11;15.70;99.90
20973;DHT22;10645;52.370;13.314;2023-08-30T06:33:37;15.70;99.90
20973;DHT22;10645;52.370;13.314;2023-08-30T06:36:05;15.80;99.90
20973;DHT22;10645;52.370;13.314;2023-08-30T06:38:31;15.70;99.90
20973;DHT22;10645;52.370;13.314;2023-08-30T06:41:00;15.90;99.90
20973;DHT22;10645;52.370;13.314;2023-08-30T06:43:26;16.00;99.90
20973;DHT22;10645;52.370;13.314;2023-08-30T06:45:52;16.20;99.90
20973;DHT22;10645;52.370;13.314;2023-08-30T06:48:19;16.20;99.90
20973;DHT22;10645;52.370;13.314;2023-08-30T06:50:45;16.30;99.90
20973;DHT22;10645;52.370;13.314;2023-08-30T06:53:11;16.30;99.90
20973;DHT22;10645;52.370;13.314;2023-08-30T06:55:37;16.50;99.90
20973;DHT22;10645;52.370;13.314;2023-08-30T06:58:04;16.60;99.90
20973;DHT22;10645;52.370;13.314;2023-08-30T07:00:30;16.60;99.90
20973;DHT22;10645;52.370;13.314;2023-08-30T07:02:56;16.80;99.90
20973;DHT22;10645;52.370;13.314;2023-08-30T07:05:22;16.60;99.90
20973;DHT22;10645;52.370;13.314;2023-08-30T07:07:49;16.80;99.90
20973;DHT22;10645;52.370;13.314;2023-08-30T07:10:15;16.80;99.90
20973;DHT22;10645;52.370;13.314;2023-08-30T07:12:41;16.80;99.90
20973;DHT22;10645;52.370;13.314;2023-08-30T07:15:07;16.90;99.90
20973;DHT22;10645;52.370;13.314;2023-08-30T07:17:33;16.80;99.90
20973;DHT22;10645;52.370;13.314;2023-08-30T07:19:59;16.80;99.90
20973;DHT22;10645;52.370;13.314;2023-08-30T07:22:26;16.80;99.90
20973;DHT22;10645;52.370;13.314;2023-08-30T07:24:53;16.80;99.90
20973;DHT22;10645;52.370;13.314;2023-08-30T07:27:19;16.80;99.90
20973;DHT22;10645;52.370;13.314;2023-08-30T07:29:45;16.90;99.90
20973;DHT22;10645;52.370;13.314;2023-08-30T07:32:11;16.80;99.90
20973;DHT22;10645;52.370;13.314;2023-08-30T07:34:37;16.90;99.90
20973;DHT22;10645;52.370;13.314;2023-08-30T07:37:03;16.90;99.90
20973;DHT22;10645;52.370;13.314;2023-08-30T07:39:29;16.90;99.90
20973;DHT22;10645;52.370;13.314;2023-08-30T07:41:55;16.90;99.90
20973;DHT22;10645;52.370;13.314;2023-08-30T07:44:21;16.90;99.90
20973;DHT22;10645;52.370;13.314;2023-08-30T07:46:47;16.90;99.90
20973;DHT22;10645;52.370;13.314;2023-08-30T07:49:13;17.00;99.90
20973;DHT22;10645;52.370;13.314;2023-08-30T07:51:40;17.10;99.90
20973;DHT22;10645;52.370;13.314;2023-08-30T07:54:06;17.20;99.90
20973;DHT22;10645;52.370;13.314;2023-08-30T07:56:32;17.20;99.90
20973;DHT22;10645;52.370;13.314;2023-08-30T07:58:58;17.20;99.90
20973;DHT22;10645;52.370;13.314;2023-08-30T08:01:24;17.20;99.90
20973;DHT22;10645;52.370;13.314;2023-08-30T08:03:50;17.20;99.90
20973;DHT22;10645;52.370;13.314;2023-08-30T08:06:16;17.30;99.90
20973;DHT22;10645;52.370;13.314;2023-08-30T08:08:44;17.40;99.90
20973;DHT22;10645;52.370;13.314;2023-08-30T08:11:10;17.60;99.90
20973;DHT22;10645;52.370;13.314;2023-08-30T08:13:36;17.80;99.90
20973;DHT22;10645;52.370;13.314;2023-08-30T08:16:02;18.00;99.90
20973;DHT22;10645;52.370;13.314;2023-08-30T08:18:29;18.20;99.90
20973;DHT22;10645;52.370;13.314;2023-08-30T08:20:55;18.10;99.90
20973;DHT22;10645;52.370;13.314;2023-08-30T08:23:21;18.20;99.90
20973;DHT22;10645;52.370;13.314;2023-08-30T08:25:47;18.40;99.90
20973;DHT22;10645;52.370;13.314;2023-08-30T08:28:13;18.50;99.90
20973;DHT22;10645;52.370;13.314;2023-08-30T08:30:39;18.50;99.90
20973;DHT22;10645;52.370;13.314;2023-08-30T08:33:05;18.70;99.90
20973;DHT22;10645;52.370;13.314;2023-08-30T08:35:31;18.80;99.90
20973;DHT22;10645;52.370;13.314;2023-08-30T08:37:57;18.90;99.90
20973;DHT22;10645;52.370;13.314;2023-08-30T08:40:23;19.00;99.90
20973;DHT22;10645;52.370;13.314;2023-08-30T08:42:49;19.10;99.90
20973;DHT22;10645;52.370;13.314;2023-08-30T08:45:17;19.10;99.90
20973;DHT22;10645;52.370;13.314;2023-08-30T08:47:45;19.30;99.90
20973;DHT22;10645;52.370;13.314;2023-08-30T08:50:12;19.30;99.90
20973;DHT22;10645;52.370;13.314;2023-08-30T08:52:38;19.20;99.90
20973;DHT22;10645;52.370;13.314;2023-08-30T08:55:04;19.20;99.90
20973;DHT22;10645;52.370;13.314;2023-08-30T08:57:31;19.20;99.90
20973;DHT22;10645;52.370;13.314;2023-08-30T08:59:59;19.20;99.90
20973;DHT22;10645;52.370;13.314;2023-08-30T09:02:25;19.10;99.90
20973;DHT22;10645;52.370;13.314;2023-08-30T09:04:52;19.30;99.90
20973;DHT22;10645;52.370;13.314;2023-08-30T09:07:19;19.40;99.90
20973;DHT22;10645;52.370;13.314;2023-08-30T09:09:46;19.50;99.90
20973;DHT22;10645;52.370;13.314;2023-08-30T09:12:13;19.50;99.90
20973;DHT22;10645;52.370;13.314;2023-08-30T09:14:39;19.60;99.90
20973;DHT22;10645;52.370;13.314;2023-08-30T09:17:05;19.50;99.90
20973;DHT22;10645;52.370;13.314;2023-08-30T09:19:31;19.60;99.90
20973;DHT22;10645;52.370;13.314;2023-08-30T09:21:58;19.60;99.90
20973;DHT22;10645;52.370;13.314;2023-08-30T09:24:25;19.60;99.90
20973;DHT22;10645;52.370;13.314;2023-08-30T09:26:53;19.90;99.90
20973;DHT22;10645;52.370;13.314;2023-08-30T09:29:21;20.00;99.90
20973;DHT22;10645;52.370;13.314;2023-08-30T09:31:52;20.10;99.90
20973;DHT22;10645;52.370;13.314;2023-08-30T09:34:25;20.20;99.90
20973;DHT22;10645;52.370;13.314;2023-08-30T09:36:52;20.00;99.90
20973;DHT22;10645;52.370;13.314;2023-08-30T09:39:18;20.00;99.90
20973;DHT22;10645;52.370;13.314;2023-08-30T09:41:46;20.20;99.90
20973;DHT22;10645;52.370;13.314;2023-08-30T09:44:13;20.10;99.90
20973;DHT22;10645;52.370;13.314;2023-08-30T09:46:50;20.10;99.90
20973;DHT22;10645;52.370;13.314;2023-08-30T09:49:19;20.10;99.90
20973;DHT22;10645;52.370;13.314;2023-08-30T09:51:47;20.10;99.90
20973;DHT22;10645;52.370;13.314;2023-08-30T09:54:17;20.20;99.90
20973;DHT22;10645;52.370;13.314;2023-08-30T09:56:44;20.20;99.90
20973;DHT22;10645;52.370;13.314;2023-08-30T09:59:11;20.40;99.90
20973;DHT22;10645;52.370;13.314;2023-08-30T10:01:39;20.50;99.90
20973;DHT22;10645;52.370;13.314;2023-08-30T10:04:07;20.50;99.90
20973;DHT22;10645;52.370;13.314;2023-08-30T10:06:35;20.60;99.90
20973;DHT22;10645;52.370;13.314;2023-08-30T10:09:02;20.50;99.90
20973;DHT22;10645;52.370;13.314;2023-08-30T10:11:29;20.60;99.90
20973;DHT22;10645;52.370;13.314;2023-08-30T10:13:58;20.80;99.90
20973;DHT22;10645;52.370;13.314;2023-08-30T10:16:26;21.30;99.90
20973;DHT22;10645;52.370;13.314;2023-08-30T10:18:54;21.60;99.90
20973;DHT22;10645;52.370;13.314;2023-08-30T10:21:24;21.50;99.90
20973;DHT22;10645;52.370;13.314;2023-08-30T10:23:51;21.30;99.90
20973;DHT22;10645;52.370;13.314;2023-08-30T10:26:24;21.10;99.90
20973;DHT22;10645;52.370;13.314;2023-08-30T10:28:53;21.10;99.90
20973;DHT22;10645;52.370;13.314;2023-08-30T10:31:20;21.40;99.90
20973;DHT22;10645;52.370;13.314;2023-08-30T10:33:48;21.70;99.90
20973;DHT22;10645;52.370;13.314;2023-08-30T10:36:24;21.80;99.90
20973;DHT22;10645;52.370;13.314;2023-08-30T10:38:51;21.80;99.90
20973;DHT22;10645;52.370;13.314;2023-08-30T10:41:25;21.70;99.90
20973;DHT22;10645;52.370;13.314;2023-08-30T10:43:54;21.70;99.90
20973;DHT22;10645;52.370;13.314;2023-08-30T10:46:36;21.60;99.90
20973;DHT22;10645;52.370;13.314;2023-08-30T10:49:12;21.50;99.90
20973;DHT22;10645;52.370;13.314;2023-08-30T10:51:40;21.40;99.90
20973;DHT22;10645;52.370;13.314;2023-08-30T10:54:11;21.50;99.90
20973;DHT22;10645;52.370;13.314;2023-08-30T10:56:46;21.40;99.90
20973;DHT22;10645;52.370;13.314;2023-08-30T10:59:18;21.40;99.90
20973;DHT22;10645;52.370;13.314;2023-08-30T11:01:45;21.50;99.90
20973;DHT22;10645;52.370;13.314;2023-08-30T11:04:14;21.60;99.90
20973;DHT22;10645;52.370;13.314;2023-08-30T11:06:47;21.80;99.90
20973;DHT22;10645;52.370;13.314;2023-08-30T11:09:21;22.10;99.90
20973;DHT22;10645;52.370;13.314;2023-08-30T11:11:49;22.10;99.90
20973;DHT22;10645;52.370;13.314;2023-08-30T11:14:17;22.30;99.90
20973;DHT22;10645;52.370;13.314;2023-08-30T11:16:44;22.40;99.90
20973;DHT22;10645;52.370;13.314;2023-08-30T11:19:11;22.30;99.90
20973;DHT22;10645;52.370;13.314;2023-08-30T11:21:39;22.20;99.90
20973;DHT22;10645;52.370;13.314;2023-08-30T11:24:06;22.00;99.90
20973;DHT22;10645;52.370;13.314;2023-08-30T11:26:33;21.70;99.90
20973;DHT22;10645;52.370;13.314;2023-08-30T11:29:09;21.50;99.90
20973;DHT22;10645;52.370;13.314;2023-08-30T11:31:35;21.50;99.90
20973;DHT22;10645;52.370;13.314;2023-08-30T11:34:02;21.40;99.90
20973;DHT22;10645;52.370;13.314;2023-08-30T11:36:31;21.20;99.90
20973;DHT22;10645;52.370;13.314;2023-08-30T11:38:58;21.30;99.90
20973;DHT22;10645;52.370;13.314;2023-08-30T11:41:24;21.40;99.90
20973;DHT22;10645;52.370;13.314;2023-08-30T11:43:51;21.60;99.90
20973;DHT22;10645;52.370;13.314;2023-08-30T11:46:18;21.50;99.90
20973;DHT22;10645;52.370;13.314;2023-08-30T11:48:45;21.60;99.90
20973;DHT22;10645;52.370;13.314;2023-08-30T11:51:12;21.70;99.90
20973;DHT22;10645;52.370;13.314;2023-08-30T11:53:39;21.50;99.90
20973;DHT22;10645;52.370;13.314;2023-08-30T11:56:06;21.30;99.90
20973;DHT22;10645;52.370;13.314;2023-08-30T11:58:34;21.50;99.90
20973;DHT22;10645;52.370;13.314;2023-08-30T12:01:01;21.40;99.90
20973;DHT22;10645;52.370;13.314;2023-08-30T12:03:28;21.30;99.90
20973;DHT22;10645;52.370;13.314;2023-08-30T12:05:55;21.00;99.90
20973;DHT22;10645;52.370;13.314;2023-08-30T12:08:23;20.80;99.90
20973;DHT22;10645;52.370;13.314;2023-08-30T12:10:50;20.70;99.90
20973;DHT22;10645;52.370;13.314;2023-08-30T12:13:26;20.40;99.90
20973;DHT22;10645;52.370;13.314;2023-08-30T12:15:54;20.40;99.90
20973;DHT22;10645;52.370;13.314;2023-08-30T12:18:24;20.20;99.90
20973;DHT22;10645;52.370;13.314;2023-08-30T12:20:55;20.20;99.90
20973;DHT22;10645;52.370;13.314;2023-08-30T12:23:30;20.20;99.90
20973;DHT22;10645;52.370;13.314;2023-08-30T12:26:01;20.40;99.90
20973;DHT22;10645;52.370;13.314;2023-08-30T12:28:28;20.50;99.90
20973;DHT22;10645;52.370;13.314;2023-08-30T12:30:55;20.70;99.90
20973;DHT22;10645;52.370;13.314;2023-08-30T12:33:22;20.80;99.90
20973;DHT22;10645;52.370;13.314;2023-08-30T12:35:48;21.00;99.90
20973;DHT22;10645;52.370;13.314;2023-08-30T12:38:14;21.20;99.90
20973;DHT22;10645;52.370;13.314;2023-08-30T12:40:44;21.30;99.90
20973;DHT22;10645;52.370;13.314;2023-08-30T12:43:11;21.50;99.90
20973;DHT22;10645;52.370;13.314;2023-08-30T12:45:38;21.70;99.90
20973;DHT22;10645;52.370;13.314;2023-08-30T12:48:05;21.90;99.90
20973;DHT22;10645;52.370;13.314;2023-08-30T12:50:31;22.10;99.90
20973;DHT22;10645;52.370;13.314;2023-08-30T12:52:57;22.00;99.90
20973;DHT22;10645;52.370;13.314;2023-08-30T12:55:23;22.20;99.90
20973;DHT22;10645;52.370;13.314;2023-08-30T12:57:49;22.10;99.90
20973;DHT22;10645;52.370;13.314;2023-08-30T13:00:16;22.30;99.90
20973;DHT22;10645;52.370;13.314;2023-08-30T13:02:42;22.30;99.90
20973;DHT22;10645;52.370;13.314;2023-08-30T13:05:08;22.50;99.90
20973;DHT22;10645;52.370;13.314;2023-08-30T13:07:34;22.60;99.90
20973;DHT22;10645;52.370;13.314;2023-08-30T13:10:00;22.80;99.90
20973;DHT22;10645;52.370;13.314;2023-08-30T13:12:26;23.00;99.90
20973;DHT22;10645;52.370;13.314;2023-08-30T13:14:52;22.90;99.90
20973;DHT22;10645;52.370;13.314;2023-08-30T13:17:18;22.50;99.90
20973;DHT22;10645;52.370;13.314;2023-08-30T13:19:44;22.40;99.90
20973;DHT22;10645;52.370;13.314;2023-08-30T13:22:10;22.20;99.90
20973;DHT22;10645;52.370;13.314;2023-08-30T13:24:36;22.00;99.90
20973;DHT22;10645;52.370;13.314;2023-08-30T13:27:03;21.80;99.90
20973;DHT22;10645;52.370;13.314;2023-08-30T13:29:29;21.60;99.90
20973;DHT22;10645;52.370;13.314;2023-08-30T13:31:56;21.40;99.90
20973;DHT22;10645;52.370;13.314;2023-08-30T13:34:22;21.30;99.90
20973;DHT22;10645;52.370;13.314;2023-08-30T13:36:48;21.00;99.90
20973;DHT22;10645;52.370;13.314;2023-08-30T13:39:14;20.90;99.90
20973;DHT22;10645;52.370;13.314;2023-08-30T13:41:41;21.00;99.90
20973;DHT22;10645;52.370;13.314;2023-08-30T13:44:07;21.30;99.90
20973;DHT22;10645;52.370;13.314;2023-08-30T13:46:33;21.40;99.90
20973;DHT22;10645;52.370;13.314;2023-08-30T13:48:59;21.60;99.90
20973;DHT22;10645;52.370;13.314;2023-08-30T13:51:26;21.80;99.90
20973;DHT22;10645;52.370;13.314;2023-08-30T13:53:52;21.70;99.90
20973;DHT22;10645;52.370;13.314;2023-08-30T13:56:19;21.60;99.90
20973;DHT22;10645;52.370;13.314;2023-08-30T13:58:45;21.10;99.90
20973;DHT22;10645;52.370;13.314;2023-08-30T14:01:12;20.90;99.90
20973;DHT22;10645;52.370;13.314;2023-08-30T14:03:38;20.90;99.90
20973;DHT22;10645;52.370;13.314;2023-08-30T14:06:04;20.80;99.90
20973;DHT22;10645;52.370;13.314;2023-08-30T14:08:31;20.60;99.90
20973;DHT22;10645;52.370;13.314;2023-08-30T14:10:58;20.70;99.90
20973;DHT22;10645;52.370;13.314;2023-08-30T14:13:24;20.80;99.90
20973;DHT22;10645;52.370;13.314;2023-08-30T14:15:50;21.10;99.90
20973;DHT22;10645;52.370;13.314;2023-08-30T14:18:16;21.00;99.90
20973;DHT22;10645;52.370;13.314;2023-08-30T14:20:43;21.20;99.90
20973;DHT22;10645;52.370;13.314;2023-08-30T14:23:09;21.30;99.90
20973;DHT22;10645;52.370;13.314;2023-08-30T14:25:35;21.30;99.90
20973;DHT22;10645;52.370;13.314;2023-08-30T14:28:02;21.40;99.90
20973;DHT22;10645;52.370;13.314;2023-08-30T14:30:30;21.40;99.90
20973;DHT22;10645;52.370;13.314;2023-08-30T14:32:56;21.50;99.90
20973;DHT22;10645;52.370;13.314;2023-08-30T14:35:22;21.20;99.90
20973;DHT22;10645;52.370;13.314;2023-08-30T14:37:50;21.10;99.90
20973;DHT22;10645;52.370;13.314;2023-08-30T14:40:19;21.30;99.90
20973;DHT22;10645;52.370;13.314;2023-08-30T14:42:46;21.40;99.90
20973;DHT22;10645;52.370;13.314;2023-08-30T14:45:12;21.30;99.90
20973;DHT22;10645;52.370;13.314;2023-08-30T14:47:38;21.30;99.90
20973;DHT22;10645;52.370;13.314;2023-08-30T14:50:05;21.10;99.90
20973;DHT22;10645;52.370;13.314;2023-08-30T14:52:31;20.80;99.90
20973;DHT22;10645;52.370;13.314;2023-08-30T14:54:57;20.60;99.90
20973;DHT22;10645;52.370;13.314;2023-08-30T14:57:23;20.40;99.90
20973;DHT22;10645;52.370;13.314;2023-08-30T14:59:50;20.20;99.90
20973;DHT22;10645;52.370;13.314;2023-08-30T15:02:16;20.10;99.90
20973;DHT22;10645;52.370;13.314;2023-08-30T15:04:43;19.90;99.90
20973;DHT22;10645;52.370;13.314;2023-08-30T15:07:09;19.80;99.90
20973;DHT22;10645;52.370;13.314;2023-08-30T15:09:35;19.70;99.90
20973;DHT22;10645;52.370;13.314;2023-08-30T15:12:01;19.60;99.90
20973;DHT22;10645;52.370;13.314;2023-08-30T15:14:27;19.50;99.90
20973;DHT22;10645;52.370;13.314;2023-08-30T15:16:53;19.50;99.90
20973;DHT22;10645;52.370;13.314;2023-08-30T15:19:19;19.40;99.90